Time;durP1;ratioP1;P1;durP2;ratioP2;P2;SDS_P1;SDS_P2;PMS_P1;PMS_P2;Temp;Humidity;BMP_temperature;BMP_pressure;BME280_temperature;BME280_humidity;BME280_pressure;Samples;Min_cycle;Max_cycle;Signal;HPM_P1;HPM_P2
2021/06/25 00:01:52;;;;;;;;;;;;;;;26.43;62.89;100592.17;1734793;81;20444;-61
2021/06/25 00:04:18;;;;;;;;;;;;;;;26.41;62.88;100590.32;1736635;80;20196;-62
2021/06/25 00:06:45;;;;;;;;;;;;;;;26.38;62.92;100585.48;1731274;80;20164;-61
2021/06/25 00:09:11;;;;;;;;;;;;;;;26.35;62.94;100585.02;1733752;80;20188;-61
2021/06/25 00:11:37;;;;;;;;;;;;;;;26.33;62.98;100578.19;1728330;80;21998;-61
2021/06/25 00:14:05;;;;;;;;;;;;;;;26.32;63.01;100584.94;1732720;80;20291;-61
2021/06/25 00:16:31;;;;;;;;;;;;;;;26.29;63.04;100587.88;1732250;81;20194;-61
2021/06/25 00:18:57;;;;;;;;;;;;;;;26.27;63.09;100587.41;1734824;80;20187;-61
2021/06/25 00:21:23;;;;;;;;;;;;;;;26.26;63.13;100589.19;1726154;80;20148;-61
2021/06/25 00:23:49;;;;;;;;;;;;;;;26.24;63.17;100592.33;1723823;80;22079;-61
2021/06/25 00:26:16;;;;;;;;;;;;;;;26.22;63.22;100584.92;1731560;80;20191;-61
2021/06/25 00:28:42;;;;;;;;;;;;;;;26.21;63.26;100588.06;1720071;80;20209;-61
2021/06/25 00:31:08;;;;;;;;;;;;;;;26.18;63.30;100585.36;1728245;80;21888;-61
2021/06/25 00:33:34;;;;;;;;;;;;;;;26.18;63.37;100593.72;1719943;80;20173;-62
2021/06/25 00:36:01;;;;;;;;;;;;;;;26.16;63.41;100588.30;1731195;80;21949;-61
2021/06/25 00:38:27;;;;;;;;;;;;;;;26.16;63.41;100587.72;1721741;80;20956;-61
2021/06/25 00:40:53;;;;;;;;;;;;;;;26.19;63.46;100590.36;1723918;80;20167;-62
2021/06/25 00:43:19;;;;;;;;;;;;;;;26.20;63.52;100591.43;1727435;80;20168;-61
2021/06/25 00:45:47;;;;;;;;;;;;;;;26.22;63.61;100588.29;1724955;80;20497;-62
2021/06/25 00:48:13;;;;;;;;;;;;;;;26.24;63.69;100581.75;1725404;80;21021;-62
2021/06/25 00:50:39;;;;;;;;;;;;;;;26.27;63.77;100588.80;1729317;80;20111;-61
2021/06/25 00:53:05;;;;;;;;;;;;;;;26.30;63.82;100588.11;1728048;80;20505;-62
2021/06/25 00:55:44;;;;;;;;;;;;;;;26.34;63.86;100586.79;1728630;80;20418;-61
2021/06/25 00:58:12;;;;;;;;;;;;;;;26.39;63.90;100587.91;1721775;80;20233;-61
2021/06/25 01:00:38;;;;;;;;;;;;;;;26.44;63.96;100579.24;1731663;80;21144;-61
2021/06/25 01:03:04;;;;;;;;;;;;;;;26.48;63.96;100575.95;1735462;80;21071;-61
2021/06/25 01:05:31;;;;;;;;;;;;;;;26.53;63.98;100572.07;1724328;80;20191;-61
2021/06/25 01:07:57;;;;;;;;;;;;;;;26.56;64.01;100574.97;1720759;80;20221;-61
2021/06/25 01:10:23;;;;;;;;;;;;;;;26.58;63.98;100571.21;1721019;80;20462;-61
2021/06/25 01:12:50;;;;;;;;;;;;;;;26.59;63.95;100565.05;1727060;80;21138;-61
2021/06/25 01:15:16;;;;;;;;;;;;;;;26.61;63.93;100572.45;1724145;80;20401;-61
2021/06/25 01:17:43;;;;;;;;;;;;;;;26.61;63.93;100568.27;1732171;80;20145;-62
2021/06/25 01:20:12;;;;;;;;;;;;;;;26.59;63.89;100569.23;1723782;80;20480;-64
2021/06/25 01:22:42;;;;;;;;;;;;;;;26.57;63.90;100557.03;1732270;80;20425;-63
2021/06/25 01:25:17;;;;;;;;;;;;;;;26.56;63.92;100566.59;1733440;80;22126;-61
2021/06/25 01:27:44;;;;;;;;;;;;;;;26.53;63.91;100557.54;1732895;80;20130;-61
2021/06/25 01:30:13;;;;;;;;;;;;;;;26.50;63.94;100556.88;1735376;80;20127;-61
2021/06/25 01:32:39;;;;;;;;;;;;;;;26.48;63.94;100548.66;1733228;80;20525;-61
2021/06/25 01:35:07;;;;;;;;;;;;;;;26.45;63.98;100545.19;1732439;80;20143;-62
2021/06/25 01:37:33;;;;;;;;;;;;;;;26.42;64.01;100537.55;1733418;80;21164;-61
2021/06/25 01:39:59;;;;;;;;;;;;;;;26.40;64.08;100535.11;1732769;80;20432;-62
2021/06/25 01:42:26;;;;;;;;;;;;;;;26.37;64.12;100535.84;1730696;80;20156;-61
2021/06/25 01:44:52;;;;;;;;;;;;;;;26.35;64.16;100537.59;1736839;81;20147;-62
2021/06/25 01:47:19;;;;;;;;;;;;;;;26.33;64.21;100534.38;1735219;82;20492;-61
2021/06/25 01:49:45;;;;;;;;;;;;;;;26.30;64.25;100529.53;1735605;80;21257;-62
2021/06/25 01:52:18;;;;;;;;;;;;;;;26.29;64.31;100529.89;1734826;82;20144;-61
2021/06/25 01:54:45;;;;;;;;;;;;;;;26.27;64.37;100527.45;1730478;80;20199;-61
2021/06/25 01:57:11;;;;;;;;;;;;;;;26.26;64.40;100520.86;1731932;82;20409;-62
2021/06/25 01:59:38;;;;;;;;;;;;;;;26.28;64.44;100526.28;1732082;80;20118;-62
2021/06/25 02:02:04;;;;;;;;;;;;;;;26.29;64.52;100514.55;1734288;80;21036;-61
2021/06/25 02:04:30;;;;;;;;;;;;;;;26.30;64.58;100511.98;1734127;80;20441;-61
2021/06/25 02:06:56;;;;;;;;;;;;;;;26.32;64.67;100512.42;1733352;80;20147;-61
2021/06/25 02:09:22;;;;;;;;;;;;;;;26.35;64.74;100506.13;1732888;80;20206;-62
2021/06/25 02:11:49;;;;;;;;;;;;;;;26.37;64.78;100498.19;1731260;80;20217;-61
2021/06/25 02:14:15;;;;;;;;;;;;;;;26.41;64.81;100487.11;1733816;81;21163;-61
2021/06/25 02:16:41;;;;;;;;;;;;;;;26.45;64.86;100500.55;1733469;81;20107;-61
2021/06/25 02:19:07;;;;;;;;;;;;;;;26.48;64.88;100494.27;1728398;81;20159;-61
2021/06/25 02:21:34;;;;;;;;;;;;;;;26.51;64.87;100489.34;1743862;79;20168;-61
2021/06/25 02:24:00;;;;;;;;;;;;;;;26.55;64.88;100485.45;1765904;79;20149;-61
2021/06/25 02:26:26;;;;;;;;;;;;;;;26.59;64.85;100489.13;1755872;79;22033;-61
2021/06/25 02:28:52;;;;;;;;;;;;;;;26.62;64.88;100491.17;1757850;79;20250;-61
2021/06/25 02:31:19;;;;;;;;;;;;;;;26.63;64.86;100485.83;1761893;79;20173;-61
2021/06/25 02:33:46;;;;;;;;;;;;;;;26.65;64.83;100498.03;1768270;79;20203;-61
2021/06/25 02:36:12;;;;;;;;;;;;;;;26.65;64.80;100494.63;1757149;78;20133;-61
2021/06/25 02:38:38;;;;;;;;;;;;;;;26.65;64.78;100504.39;1758321;79;21161;-61
2021/06/25 02:41:04;;;;;;;;;;;;;;;26.64;64.76;100497.80;1751998;79;20216;-62
2021/06/25 02:43:30;;;;;;;;;;;;;;;26.63;64.73;100500.36;1757939;79;20141;-61
2021/06/25 02:45:57;;;;;;;;;;;;;;;26.61;64.70;100490.14;1762747;79;21898;-61
2021/06/25 02:48:23;;;;;;;;;;;;;;;26.58;64.71;100493.09;1768401;79;20137;-61
2021/06/25 02:50:49;;;;;;;;;;;;;;;26.56;64.70;100494.64;1755776;79;23213;-62
2021/06/25 02:53:16;;;;;;;;;;;;;;;26.52;64.73;100488.17;1761497;79;20165;-61
2021/06/25 02:55:51;;;;;;;;;;;;;;;26.50;64.77;100494.11;1748358;79;20159;-62
2021/06/25 02:58:20;;;;;;;;;;;;;;;26.47;64.78;100489.84;1760392;79;20181;-61
2021/06/25 03:00:50;;;;;;;;;;;;;;;26.44;64.83;100490.59;1761565;79;20417;-61
2021/06/25 03:03:16;;;;;;;;;;;;;;;26.40;64.87;100484.09;1728598;80;21021;-61
2021/06/25 03:05:42;;;;;;;;;;;;;;;26.38;64.90;100480.87;1697851;82;20492;-61
2021/06/25 03:08:08;;;;;;;;;;;;;;;26.35;64.95;100484.59;1756575;79;20450;-61
2021/06/25 03:10:35;;;;;;;;;;;;;;;26.32;64.99;100479.76;1754464;79;20165;-61
2021/06/25 03:13:01;;;;;;;;;;;;;;;26.31;65.02;100482.91;1759901;79;20097;-61
2021/06/25 03:15:27;;;;;;;;;;;;;;;26.29;65.04;100479.10;1763778;79;21165;-62
2021/06/25 03:17:53;;;;;;;;;;;;;;;26.29;65.08;100484.68;1762291;79;20124;-61
2021/06/25 03:20:19;;;;;;;;;;;;;;;26.30;65.14;100478.52;1764708;79;20416;-61
2021/06/25 03:22:45;;;;;;;;;;;;;;;26.31;65.22;100476.74;1766950;80;20459;-61
2021/06/25 03:25:12;;;;;;;;;;;;;;;26.32;65.29;100474.18;1728470;81;20422;-62
2021/06/25 03:27:38;;;;;;;;;;;;;;;26.36;65.34;100472.86;1686487;82;21058;-61
2021/06/25 03:30:06;;;;;;;;;;;;;;;26.39;65.39;100470.76;1762124;80;20462;-61
2021/06/25 03:32:32;;;;;;;;;;;;;;;26.42;65.42;100472.00;1761668;79;20441;-62
2021/06/25 03:34:58;;;;;;;;;;;;;;;26.46;65.47;100479.27;1761966;79;20191;-61
2021/06/25 03:37:25;;;;;;;;;;;;;;;26.49;65.47;100481.32;1764349;79;20389;-61
2021/06/25 03:39:51;;;;;;;;;;;;;;;26.53;65.45;100487.79;1758578;79;21134;-61
2021/06/25 03:42:17;;;;;;;;;;;;;;;26.57;65.45;100490.06;1764458;79;20200;-61
2021/06/25 03:44:44;;;;;;;;;;;;;;;26.63;65.43;100500.36;1724536;81;20253;-61
2021/06/25 03:47:10;;;;;;;;;;;;;;;26.65;65.43;100496.02;1767041;79;20363;-61
2021/06/25 03:49:36;;;;;;;;;;;;;;;26.67;65.41;100492.88;1760386;80;20146;-62
2021/06/25 03:52:03;;;;;;;;;;;;;;;26.69;65.38;100489.14;1765991;79;21515;-61
2021/06/25 03:54:29;;;;;;;;;;;;;;;26.70;65.32;100492.13;1764165;80;20144;-61
2021/06/25 03:56:55;;;;;;;;;;;;;;;26.69;65.28;100485.73;1760698;80;20596;-61
2021/06/25 03:59:22;;;;;;;;;;;;;;;26.69;65.24;100487.75;1760452;80;20252;-62
2021/06/25 04:01:48;;;;;;;;;;;;;;;26.67;65.19;100495.66;1764938;79;20149;-61
2021/06/25 04:04:14;;;;;;;;;;;;;;;26.65;65.19;100496.02;1760575;80;21155;-61
2021/06/25 04:06:40;;;;;;;;;;;;;;;26.62;65.20;100499.55;1759966;80;20176;-61
2021/06/25 04:09:07;;;;;;;;;;;;;;;26.60;65.20;100499.70;1761917;79;20156;-62
2021/06/25 04:11:33;;;;;;;;;;;;;;;26.57;65.21;100501.23;1762534;80;20603;-61
2021/06/25 04:13:59;;;;;;;;;;;;;;;26.53;65.19;100498.95;1759212;79;20188;-61
2021/06/25 04:16:25;;;;;;;;;;;;;;;26.50;65.22;100506.66;1763068;80;21772;-63
2021/06/25 04:18:52;;;;;;;;;;;;;;;26.48;65.26;100508.99;1763712;80;20672;-61
2021/06/25 04:21:20;;;;;;;;;;;;;;;26.46;65.28;100509.95;1760730;79;20405;-61
2021/06/25 04:23:47;;;;;;;;;;;;;;;26.43;65.31;100497.33;1763322;79;20183;-60
2021/06/25 04:26:13;;;;;;;;;;;;;;;26.39;65.36;100488.89;1763735;79;20150;-61
2021/06/25 04:28:39;;;;;;;;;;;;;;;26.38;65.38;100487.27;1764089;79;21163;-61
2021/06/25 04:31:06;;;;;;;;;;;;;;;26.36;65.42;100488.20;1760195;79;20241;-60
2021/06/25 04:33:32;;;;;;;;;;;;;;;26.33;65.42;100488.36;1759505;79;20201;-60
2021/06/25 04:35:58;;;;;;;;;;;;;;;26.34;65.45;100483.01;1763606;79;20176;-60
2021/06/25 04:38:24;;;;;;;;;;;;;;;26.35;65.50;100489.39;1758771;79;20253;-60
2021/06/25 04:40:51;;;;;;;;;;;;;;;26.34;65.54;100480.22;1759985;79;21945;-60
2021/06/25 04:43:17;;;;;;;;;;;;;;;26.38;65.62;100483.66;1730251;80;20178;-61
2021/06/25 04:45:43;;;;;;;;;;;;;;;26.39;65.66;100477.73;1760561;79;20202;-60
2021/06/25 04:48:11;;;;;;;;;;;;;;;26.43;65.71;100480.02;1755644;79;20207;-60
2021/06/25 04:50:38;;;;;;;;;;;;;;;26.48;65.73;100484.50;1760094;79;20196;-60
2021/06/25 04:53:04;;;;;;;;;;;;;;;26.51;65.73;100489.34;1764114;79;20993;-61
2021/06/25 04:55:30;;;;;;;;;;;;;;;26.55;65.73;100499.98;1761057;79;20174;-63
2021/06/25 04:57:56;;;;;;;;;;;;;;;26.58;65.75;100495.88;1757895;78;20189;-63
2021/06/25 05:00:24;;;;;;;;;;;;;;;26.62;65.72;100490.36;1760681;79;21911;-62
2021/06/25 05:02:50;;;;;;;;;;;;;;;26.66;65.73;100488.45;1760726;79;20247;-63
2021/06/25 05:05:16;;;;;;;;;;;;;;;26.68;65.71;100492.52;1760654;79;21174;-62
2021/06/25 05:07:43;;;;;;;;;;;;;;;26.70;65.67;100487.94;1767137;78;20182;-62
2021/06/25 05:10:10;;;;;;;;;;;;;;;26.72;65.64;100485.61;1763352;79;20208;-62
2021/06/25 05:12:36;;;;;;;;;;;;;;;26.71;65.57;100485.38;1758037;79;20328;-62
2021/06/25 05:15:03;;;;;;;;;;;;;;;26.71;65.53;100485.38;1757944;79;20176;-62
2021/06/25 05:17:29;;;;;;;;;;;;;;;26.69;65.49;100489.92;1754076;79;20966;-62
2021/06/25 05:19:56;;;;;;;;;;;;;;;26.67;65.47;100492.88;1761919;79;20244;-63
2021/06/25 05:22:22;;;;;;;;;;;;;;;26.65;65.46;100490.44;1762085;79;20184;-62
2021/06/25 05:24:48;;;;;;;;;;;;;;;26.63;65.44;100497.57;1757359;79;20184;-63
2021/06/25 05:27:14;;;;;;;;;;;;;;;26.60;65.43;100491.34;1757538;79;20221;-63
2021/06/25 05:29:40;;;;;;;;;;;;;;;26.58;65.45;100496.45;1758569;79;21022;-63
2021/06/25 05:32:07;;;;;;;;;;;;;;;26.55;65.46;100502.19;1762631;79;20142;-63
2021/06/25 05:34:33;;;;;;;;;;;;;;;26.52;65.46;100501.51;1764905;79;20415;-63
2021/06/25 05:36:59;;;;;;;;;;;;;;;26.50;65.50;100504.45;1765911;79;20425;-63
2021/06/25 05:39:25;;;;;;;;;;;;;;;26.47;65.50;100510.19;1758398;79;20643;-63
2021/06/25 05:41:51;;;;;;;;;;;;;;;26.44;65.55;100512.29;1727350;80;21165;-63
2021/06/25 05:44:18;;;;;;;;;;;;;;;26.43;65.57;100515.47;1701960;82;20205;-63
2021/06/25 05:46:44;;;;;;;;;;;;;;;26.41;65.60;100512.22;1688359;83;20272;-62
2021/06/25 05:49:10;;;;;;;;;;;;;;;26.40;65.62;100516.17;1755747;80;20167;-62
2021/06/25 05:51:36;;;;;;;;;;;;;;;26.40;65.62;100513.38;1764818;79;20184;-62
2021/06/25 05:54:02;;;;;;;;;;;;;;;26.41;65.67;100515.81;1763086;79;21199;-62
2021/06/25 05:56:28;;;;;;;;;;;;;;;26.42;65.73;100511.05;1765050;79;20197;-62
2021/06/25 05:58:54;;;;;;;;;;;;;;;26.45;65.78;100513.10;1766761;79;20217;-62
2021/06/25 06:01:21;;;;;;;;;;;;;;;26.47;65.86;100517.16;1758881;79;20504;-63
2021/06/25 06:03:47;;;;;;;;;;;;;;;26.50;65.90;100524.80;1751575;79;20219;-62
2021/06/25 06:06:13;;;;;;;;;;;;;;;26.55;65.93;100523.70;1765970;79;22255;-62
2021/06/25 06:08:40;;;;;;;;;;;;;;;26.57;65.96;100524.94;1752318;79;20227;-61
2021/06/25 06:11:06;;;;;;;;;;;;;;;26.63;65.99;100533.84;1760233;79;20280;-62
2021/06/25 06:13:32;;;;;;;;;;;;;;;26.66;65.98;100526.94;1764366;80;21839;-61
2021/06/25 06:15:58;;;;;;;;;;;;;;;26.70;66.00;100534.80;1762265;79;20193;-62
2021/06/25 06:18:31;;;;;;;;;;;;;;;26.73;65.98;100532.67;1757619;79;22497;-63
2021/06/25 06:20:55;;;;;;;;;;;;;;;26.77;65.99;100542.53;1738396;80;20517;-62
2021/06/25 06:31:40;;;;;;;;;;;;;;;26.80;65.86;100522.26;1739325;79;21236;-62
2021/06/25 06:34:10;;;;;;;;;;;;;;;26.80;65.82;100523.07;1759727;79;20405;-62
2021/06/25 06:36:42;;;;;;;;;;;;;;;26.79;65.82;100522.03;1756795;79;20204;-62
2021/06/25 06:39:04;;;;;;;;;;;;;;;26.77;65.82;100521.02;1761320;79;20161;-62
2021/06/25 06:41:30;;;;;;;;;;;;;;;26.75;65.80;100522.55;1763248;79;20199;-62
2021/06/25 06:43:57;;;;;;;;;;;;;;;26.73;65.79;100525.69;1753017;79;21092;-62
2021/06/25 06:46:23;;;;;;;;;;;;;;;26.71;65.79;100523.05;1705813;82;20168;-62
2021/06/25 06:48:49;;;;;;;;;;;;;;;26.69;65.78;100517.05;1708395;81;20182;-64
2021/06/25 06:51:15;;;;;;;;;;;;;;;26.67;65.83;100517.98;1715872;81;20323;-64
2021/06/25 06:53:43;;;;;;;;;;;;;;;26.65;65.83;100512.76;1708029;81;20167;-63
2021/06/25 06:56:17;;;;;;;;;;;;;;;26.63;65.88;100515.70;1712217;82;21159;-63
2021/06/25 06:58:45;;;;;;;;;;;;;;;26.60;65.89;100521.44;1761099;80;20151;-63
2021/06/25 07:01:11;;;;;;;;;;;;;;;26.58;65.93;100524.36;1756417;79;20186;-63
2021/06/25 07:03:36;;;;;;;;;;;;;;;26.55;65.96;100525.91;1768487;79;20171;-64
2021/06/25 07:06:03;;;;;;;;;;;;;;;26.55;65.97;100530.09;1767694;79;20159;-64
2021/06/25 07:08:30;;;;;;;;;;;;;;;26.57;66.02;100523.55;1763516;79;21121;-64
2021/06/25 07:10:56;;;;;;;;;;;;;;;26.56;66.07;100530.33;1772046;79;21496;-63
2021/06/25 07:13:22;;;;;;;;;;;;;;;26.58;66.14;100532.73;1760453;79;20156;-64
2021/06/25 07:15:48;;;;;;;;;;;;;;;26.61;66.23;100534.78;1761843;79;20163;-64
2021/06/25 07:18:13;;;;;;;;;;;;;;;26.64;66.28;100527.09;1762377;79;21124;-63
2021/06/25 07:20:40;;;;;;;;;;;;;;;26.66;66.29;100528.92;1764864;79;22023;-63
2021/06/25 07:23:06;;;;;;;;;;;;;;;26.70;66.32;100528.41;1756812;79;20138;-63
2021/06/25 07:25:32;;;;;;;;;;;;;;;26.73;66.35;100534.06;1750916;80;20209;-63
2021/06/25 07:27:58;;;;;;;;;;;;;;;26.76;66.36;100530.56;1753830;80;20138;-63
2021/06/25 07:30:24;;;;;;;;;;;;;;;26.80;66.34;100533.42;1749694;80;20196;-63
2021/06/25 07:32:50;;;;;;;;;;;;;;;26.85;66.33;100535.15;1743274;80;21132;-63
2021/06/25 07:35:16;;;;;;;;;;;;;;;26.88;66.34;100533.83;1744406;80;20406;-63
2021/06/25 07:37:42;;;;;;;;;;;;;;;26.90;66.32;100528.70;1752859;80;20269;-63
2021/06/25 07:40:09;;;;;;;;;;;;;;;26.93;66.29;100528.53;1751791;80;20224;-63
2021/06/25 07:42:35;;;;;;;;;;;;;;;26.94;66.24;100527.38;1752355;80;20138;-63
2021/06/25 07:45:07;;;;;;;;;;;;;;;26.94;66.18;100530.16;1753718;80;21163;-63
2021/06/25 07:47:28;;;;;;;;;;;;;;;26.94;66.12;100531.55;1745764;80;20152;-63
2021/06/25 07:49:55;;;;;;;;;;;;;;;26.92;66.09;100530.52;1750801;80;20473;-63
2021/06/25 07:52:21;;;;;;;;;;;;;;;26.91;66.04;100539.25;1749937;80;20559;-63
2021/06/25 07:54:47;;;;;;;;;;;;;;;26.88;66.01;100542.78;1746425;80;20245;-63
2021/06/25 07:57:13;;;;;;;;;;;;;;;26.85;66.00;100549.11;1748323;80;21162;-63
2021/06/25 07:59:38;;;;;;;;;;;;;;;26.82;66.00;100549.20;1752728;80;20171;-63
2021/06/25 08:02:04;;;;;;;;;;;;;;;26.79;66.01;100551.34;1752573;81;20235;-63
2021/06/25 08:04:31;;;;;;;;;;;;;;;26.76;66.00;100562.66;1751396;80;20642;-63
2021/06/25 08:06:57;;;;;;;;;;;;;;;26.73;66.01;100563.98;1747063;80;20177;-63
2021/06/25 08:09:23;;;;;;;;;;;;;;;26.71;66.03;100555.16;1749957;80;21217;-63
2021/06/25 08:11:49;;;;;;;;;;;;;;;26.67;66.05;100556.47;1748953;80;20172;-63
2021/06/25 08:14:15;;;;;;;;;;;;;;;26.66;66.07;100558.22;1749111;80;20376;-63
2021/06/25 08:16:41;;;;;;;;;;;;;;;26.63;66.11;100554.77;1751417;80;20571;-63
2021/06/25 08:19:08;;;;;;;;;;;;;;;26.61;66.16;100548.16;1753458;80;20176;-63
2021/06/25 08:21:34;;;;;;;;;;;;;;;26.60;66.15;100559.11;1748627;80;23260;-63
2021/06/25 08:24:00;;;;;;;;;;;;;;;26.61;66.17;100555.71;1750590;79;20199;-63
2021/06/25 08:26:28;;;;;;;;;;;;;;;26.61;66.22;100552.92;1755774;79;20192;-63
2021/06/25 08:28:55;;;;;;;;;;;;;;;26.61;66.30;100549.55;1719925;80;20221;-63
2021/06/25 08:31:21;;;;;;;;;;;;;;;26.64;66.33;100546.63;1764403;79;20121;-63
2021/06/25 08:33:47;;;;;;;;;;;;;;;26.66;66.38;100546.48;1756292;79;21023;-64
2021/06/25 08:36:13;;;;;;;;;;;;;;;26.70;66.42;100556.31;1760816;79;20164;-62
2021/06/25 08:38:39;;;;;;;;;;;;;;;26.73;66.41;100554.99;1760981;79;20910;-63
2021/06/25 08:41:06;;;;;;;;;;;;;;;26.77;66.42;100560.68;1755729;79;20732;-63
2021/06/25 08:43:31;;;;;;;;;;;;;;;26.80;66.40;100556.56;1758206;79;20157;-63
2021/06/25 08:46:01;;;;;;;;;;;;;;;26.86;66.38;100557.12;1766139;79;21054;-63
2021/06/25 08:48:27;;;;;;;;;;;;;;;26.90;66.37;100555.80;1757767;81;20161;-63
2021/06/25 08:50:55;;;;;;;;;;;;;;;26.95;66.34;100551.30;1766109;79;20183;-63
2021/06/25 08:53:22;;;;;;;;;;;;;;;26.96;66.32;100550.94;1762239;79;20211;-63
2021/06/25 08:55:48;;;;;;;;;;;;;;;26.98;66.26;100550.58;1759986;79;20176;-63
2021/06/25 08:58:17;;;;;;;;;;;;;;;27.00;66.21;100542.63;1768416;78;21252;-63
2021/06/25 09:00:43;;;;;;;;;;;;;;;27.00;66.13;100545.42;1766605;79;20501;-63
2021/06/25 09:03:24;;;;;;;;;;;;;;;27.00;66.06;100535.65;1763540;79;20485;-63
2021/06/25 09:05:51;;;;;;;;;;;;;;;26.98;66.03;100536.63;1736889;80;20184;-63
2021/06/25 09:08:28;;;;;;;;;;;;;;;26.96;65.96;100535.58;1722098;80;20467;-63
2021/06/25 09:10:56;;;;;;;;;;;;;;;26.94;65.94;100539.34;1766453;79;21016;-63
2021/06/25 09:13:33;;;;;;;;;;;;;;;26.91;65.91;100534.48;1733630;80;21294;-63
2021/06/25 09:15:59;;;;;;;;;;;;;;;26.89;65.89;100526.27;1764571;78;20266;-63
2021/06/25 09:18:25;;;;;;;;;;;;;;;26.86;65.89;100522.81;1757049;79;20230;-64
2021/06/25 09:20:52;;;;;;;;;;;;;;;26.82;65.89;100520.70;1764735;79;20184;-63
2021/06/25 09:23:27;;;;;;;;;;;;;;;26.79;65.89;100514.47;1757593;79;21149;-63
2021/06/25 09:25:57;;;;;;;;;;;;;;;26.77;65.90;100512.64;1751003;80;20133;-63
2021/06/25 09:28:36;;;;;;;;;;;;;;;26.74;65.93;100510.56;1752058;81;20147;-63
2021/06/25 09:31:21;;;;;;;;;;;;;;;26.73;65.94;100516.53;1733517;82;20176;-63
2021/06/25 09:33:53;;;;;;;;;;;;;;;26.70;65.96;100516.66;1733798;82;20252;-63
2021/06/25 09:36:22;;;;;;;;;;;;;;;26.68;65.97;100520.42;1732888;81;20292;-63
2021/06/25 09:38:59;;;;;;;;;;;;;;;26.67;66.00;100515.20;1735541;81;20169;-63
2021/06/25 09:41:25;;;;;;;;;;;;;;;26.68;65.98;100511.23;1734448;80;20391;-63
2021/06/25 09:44:00;;;;;;;;;;;;;;;26.69;66.02;100510.07;1741677;81;20580;-63
2021/06/25 09:46:31;;;;;;;;;;;;;;;26.70;66.04;100506.08;1729670;81;20754;-63
2021/06/25 09:48:59;;;;;;;;;;;;;;;26.73;66.08;100509.56;1733933;81;21167;-63
2021/06/25 09:51:25;;;;;;;;;;;;;;;26.76;66.13;100499.05;1738936;80;20093;-63
2021/06/25 09:54:14;;;;;;;;;;;;;;;26.80;66.16;100491.55;1737224;81;20217;-63
2021/06/25 09:56:46;;;;;;;;;;;;;;;26.85;66.17;100495.48;1739577;80;20462;-63
2021/06/25 10:01:58;;;;;;;;;;;;;;;26.94;66.15;100493.28;1737223;81;21085;-63
2021/06/25 10:04:34;;;;;;;;;;;;;;;26.99;66.12;100489.39;1737209;81;20137;-63
2021/06/25 10:07:12;;;;;;;;;;;;;;;27.03;66.07;100479.88;1734613;81;20145;-64
2021/06/25 10:09:38;;;;;;;;;;;;;;;27.06;66.04;100484.74;1735260;81;20779;-63
2021/06/25 10:12:05;;;;;;;;;;;;;;;27.09;65.98;100472.83;1735860;81;20173;-63
2021/06/25 10:14:31;;;;;;;;;;;;;;;27.10;65.91;100472.24;1734659;81;21310;-64
2021/06/25 10:16:57;;;;;;;;;;;;;;;27.10;65.85;100469.45;1739016;81;20432;-63
2021/06/25 10:19:23;;;;;;;;;;;;;;;27.10;65.79;100466.07;1737451;80;20291;-63
2021/06/25 10:21:49;;;;;;;;;;;;;;;27.10;65.75;100459.67;1735088;81;20161;-63
2021/06/25 10:24:15;;;;;;;;;;;;;;;27.09;65.71;100461.66;1726207;80;20175;-63
2021/06/25 10:26:40;;;;;;;;;;;;;;;27.10;65.67;100461.88;1749092;78;21233;-63
2021/06/25 10:29:06;;;;;;;;;;;;;;;27.08;65.63;100460.03;1779564;78;20812;-63
2021/06/25 10:31:32;;;;;;;;;;;;;;;27.07;65.58;100457.05;1756779;80;20197;-63
2021/06/25 10:33:58;;;;;;;;;;;;;;;27.06;65.58;100448.45;1736276;80;20222;-63
2021/06/25 10:36:30;;;;;;;;;;;;;;;27.05;65.55;100447.41;1781969;79;20177;-63
2021/06/25 10:39:18;;;;;;;;;;;;;;;27.03;65.55;100448.38;1776834;78;21214;-63
2021/06/25 10:41:50;;;;;;;;;;;;;;;27.01;65.54;100449.33;1669806;83;20138;-63
2021/06/25 10:44:40;;;;;;;;;;;;;;;27.00;65.52;100449.09;1678098;84;20452;-63
2021/06/25 10:47:16;;;;;;;;;;;;;;;26.98;65.53;100439.72;1669313;84;21928;-63
2021/06/25 10:50:13;;;;;;;;;;;;;;;26.97;65.51;100444.27;1665334;84;20165;-63
2021/06/25 10:52:39;;;;;;;;;;;;;;;26.95;65.50;100432.64;1671344;84;21106;-63
2021/06/25 10:55:16;;;;;;;;;;;;;;;26.94;65.51;100431.05;1672055;84;20241;-63
2021/06/25 10:57:54;;;;;;;;;;;;;;;26.94;65.50;100436.64;1665319;84;20414;-63
2021/06/25 11:00:30;;;;;;;;;;;;;;;26.95;65.48;100429.85;1651785;85;20609;-62
2021/06/25 11:02:55;;;;;;;;;;;;;;;26.96;65.50;100427.28;1619498;87;20170;-64
2021/06/25 11:05:29;;;;;;;;;;;;;;;26.98;65.55;100422.97;1673072;84;21114;-64
2021/06/25 11:07:57;;;;;;;;;;;;;;;27.01;65.58;100420.82;1675180;83;21559;-65
2021/06/25 11:10:26;;;;;;;;;;;;;;;27.05;65.61;100423.67;1673759;83;20181;-64
2021/06/25 11:13:16;;;;;;;;;;;;;;;27.09;65.63;100419.77;1673512;84;20902;-63
2021/06/25 11:15:44;;;;;;;;;;;;;;;27.14;65.62;100427.03;1668536;84;20203;-63
2021/06/25 11:18:22;;;;;;;;;;;;;;;27.19;65.61;100421.96;1661444;85;22158;-63
2021/06/25 11:21:00;;;;;;;;;;;;;;;27.24;65.58;100416.66;1653005;83;20222;-63
2021/06/25 11:23:44;;;;;;;;;;;;;;;27.30;65.54;100424.93;1645537;85;20455;-65
2021/06/25 11:26:17;;;;;;;;;;;;;;;27.33;65.51;100415.80;1639743;85;21355;-64
2021/06/25 11:28:45;;;;;;;;;;;;;;;27.38;65.49;100420.27;1642268;85;20207;-64
2021/06/25 11:31:18;;;;;;;;;;;;;;;27.41;65.40;100427.92;1664509;84;21245;-64
2021/06/25 11:33:57;;;;;;;;;;;;;;;27.43;65.35;100436.14;1663970;84;20357;-64
2021/06/25 11:36:54;;;;;;;;;;;;;;;27.44;65.25;100422.98;1661709;84;20178;-63
2021/06/25 11:39:31;;;;;;;;;;;;;;;27.45;65.17;100432.98;1661938;84;20142;-63
2021/06/25 11:42:09;;;;;;;;;;;;;;;27.45;65.08;100424.59;1714589;82;20167;-63
2021/06/25 11:44:37;;;;;;;;;;;;;;;27.46;65.02;100428.98;1697368;82;21137;-63
2021/06/25 11:47:13;;;;;;;;;;;;;;;27.44;64.97;100420.19;1702805;83;20201;-63
2021/06/25 11:52:25;;;;;;;;;;;;;;;27.42;64.92;100426.13;1751448;80;20194;-63
2021/06/25 11:54:53;;;;;;;;;;;;;;;27.40;64.92;100431.30;1747460;80;20163;-63
2021/06/25 11:57:27;;;;;;;;;;;;;;;27.39;64.92;100425.48;1744025;80;21078;-64
2021/06/25 12:00:14;;;;;;;;;;;;;;;27.39;64.89;100424.68;1749475;80;20446;-62
2021/06/25 12:02:49;;;;;;;;;;;;;;;27.38;64.90;100427.25;1750447;80;20366;-63
2021/06/25 12:05:17;;;;;;;;;;;;;;;27.38;64.89;100430.04;1749766;80;20195;-63
2021/06/25 12:07:43;;;;;;;;;;;;;;;27.38;64.91;100417.47;1739312;80;20181;-62
2021/06/25 12:10:10;;;;;;;;;;;;;;;27.37;64.89;100418.67;1748732;80;21113;-62
2021/06/25 12:12:37;;;;;;;;;;;;;;;27.37;64.89;100422.86;1748414;80;20514;-63
2021/06/25 12:15:11;;;;;;;;;;;;;;;27.38;64.91;100418.87;1751492;80;20161;-63
2021/06/25 12:17:45;;;;;;;;;;;;;;;27.40;64.92;100417.92;1756505;80;20161;-63
2021/06/25 12:20:31;;;;;;;;;;;;;;;27.42;64.85;100416.35;1756135;80;20147;-65
2021/06/25 12:23:00;;;;;;;;;;;;;;;27.45;64.87;100418.42;1752742;80;21167;-62
2021/06/25 12:25:32;;;;;;;;;;;;;;;27.49;64.88;100427.70;1752802;80;20150;-62
2021/06/25 12:27:58;;;;;;;;;;;;;;;27.52;64.91;100431.72;1750106;80;20368;-63
2021/06/25 12:30:24;;;;;;;;;;;;;;;27.58;64.94;100440.02;1751430;80;20473;-62
2021/06/25 12:33:04;;;;;;;;;;;;;;;27.62;64.94;100436.69;1755197;80;20205;-64
2021/06/25 12:35:35;;;;;;;;;;;;;;;27.67;64.93;100441.35;1749188;80;21096;-63
2021/06/25 12:38:07;;;;;;;;;;;;;;;27.70;64.91;100437.83;1749910;80;20165;-63
2021/06/25 12:40:40;;;;;;;;;;;;;;;27.76;64.90;100442.49;1756414;80;20161;-63
2021/06/25 12:43:07;;;;;;;;;;;;;;;27.82;64.86;100445.78;1754227;80;20190;-64
2021/06/25 12:45:40;;;;;;;;;;;;;;;27.86;64.81;100444.66;1742003;80;20184;-63
2021/06/25 12:48:23;;;;;;;;;;;;;;;27.89;64.73;100448.09;1750780;80;21070;-62
2021/06/25 12:51:10;;;;;;;;;;;;;;;27.93;64.65;100448.14;1740998;80;20268;-63
2021/06/25 12:53:37;;;;;;;;;;;;;;;27.94;64.56;100444.98;1727709;80;20200;-63
2021/06/25 12:56:08;;;;;;;;;;;;;;;27.95;64.49;100439.61;1755268;80;20446;-62